Time;durP1;ratioP1;P1;durP2;ratioP2;P2;SDS_P1;SDS_P2;PMS_P1;PMS_P2;Temp;Humidity;BMP_temperature;BMP_pressure;BME280_temperature;BME280_humidity;BME280_pressure;Samples;Min_cycle;Max_cycle;Signal;HPM_P1;HPM_P2
2022/06/26 00:00:25;;;;;;;;;;;19.50;99.90;;;;;;5090595;28;20355;-73
2022/06/26 00:02:52;;;;;;;;;;;19.10;99.90;;;;;;5082597;28;19939;-73
2022/06/26 00:05:19;;;;;;;;;;;19.50;99.90;;;;;;5087378;28;20298;-73
2022/06/26 00:07:46;;;;;;;;;;;19.50;99.90;;;;;;5070807;28;19932;-74
2022/06/26 00:10:13;;;;;;;;;;;19.40;99.90;;;;;;5070391;28;20022;-74
2022/06/26 00:12:42;;;;;;;;;;;19.40;99.90;;;;;;5070729;28;20005;-74
2022/06/26 00:15:09;;;;;;;;;;;19.40;99.90;;;;;;5070273;28;20000;-73
2022/06/26 00:17:36;;;;;;;;;;;19.30;99.90;;;;;;5087124;28;20320;-74
2022/06/26 00:20:04;;;;;;;;;;;19.20;99.90;;;;;;5070818;28;19939;-73
2022/06/26 00:22:31;;;;;;;;;;;21.10;99.90;;;;;;5070518;28;20391;-74
2022/06/26 00:24:58;;;;;;;;;;;19.20;99.90;;;;;;5064604;28;19928;-73
2022/06/26 00:27:24;;;;;;;;;;;19.00;99.90;;;;;;5082381;28;19927;-75
2022/06/26 00:29:53;;;;;;;;;;;18.70;99.90;;;;;;5077969;28;19928;-73
2022/06/26 00:32:20;;;;;;;;;;;18.40;99.90;;;;;;5086683;28;20521;-73
2022/06/26 00:34:47;;;;;;;;;;;18.10;99.90;;;;;;5086738;28;19961;-75
2022/06/26 00:37:14;;;;;;;;;;;17.90;99.90;;;;;;5088798;28;19973;-75
2022/06/26 00:39:41;;;;;;;;;;;17.80;99.90;;;;;;5079368;28;19931;-74
2022/06/26 00:42:08;;;;;;;;;;;17.80;99.90;;;;;;5069863;28;19928;-74
2022/06/26 00:44:35;;;;;;;;;;;17.70;99.90;;;;;;5089300;28;19935;-74
2022/06/26 00:47:03;;;;;;;;;;;17.70;99.90;;;;;;5073883;28;19924;-73
2022/06/26 00:49:30;;;;;;;;;;;16.90;99.90;;;;;;5090365;28;20438;-75
2022/06/26 00:51:57;;;;;;;;;;;17.70;99.90;;;;;;5090581;28;19932;-75
2022/06/26 00:54:26;;;;;;;;;;;17.60;99.90;;;;;;5073066;28;19962;-75
2022/06/26 00:56:55;;;;;;;;;;;17.60;99.90;;;;;;5076760;28;19924;-75
2022/06/26 00:59:23;;;;;;;;;;;17.70;99.90;;;;;;5075880;28;19924;-75
2022/06/26 01:01:50;;;;;;;;;;;17.60;99.90;;;;;;5073647;28;19924;-75
2022/06/26 01:04:18;;;;;;;;;;;17.70;99.90;;;;;;5091269;28;20372;-74
2022/06/26 01:06:46;;;;;;;;;;;17.60;99.90;;;;;;5089888;28;19928;-75
2022/06/26 01:09:13;;;;;;;;;;;17.60;99.90;;;;;;5071734;28;19928;-75
2022/06/26 01:11:40;;;;;;;;;;;17.60;99.90;;;;;;5082909;28;20456;-74
2022/06/26 01:14:07;;;;;;;;;;;17.60;99.90;;;;;;5072558;28;19938;-75
2022/06/26 01:16:35;;;;;;;;;;;17.60;99.90;;;;;;5090106;28;19927;-74
2022/06/26 01:19:01;;;;;;;;;;;17.50;99.90;;;;;;5073429;28;19937;-75
2022/06/26 01:21:30;;;;;;;;;;;17.50;99.90;;;;;;5089974;28;19967;-74
2022/06/26 01:23:58;;;;;;;;;;;17.40;99.90;;;;;;5089426;28;20359;-74
2022/06/26 01:26:25;;;;;;;;;;;17.50;99.90;;;;;;5082315;28;20031;-74
2022/06/26 01:28:53;;;;;;;;;;;17.40;99.90;;;;;;5053016;28;19925;-75
2022/06/26 01:31:20;;;;;;;;;;;17.40;99.90;;;;;;5080810;28;20007;-75
2022/06/26 01:33:48;;;;;;;;;;;17.30;99.90;;;;;;5053113;28;19933;-75
2022/06/26 01:36:15;;;;;;;;;;;17.30;99.90;;;;;;5054538;28;19982;-76
2022/06/26 01:38:42;;;;;;;;;;;17.30;99.90;;;;;;5053735;28;19940;-76
2022/06/26 01:41:10;;;;;;;;;;;17.30;99.90;;;;;;5058454;28;20512;-75
2022/06/26 01:43:39;;;;;;;;;;;17.30;99.90;;;;;;5090662;28;19928;-76
2022/06/26 01:46:06;;;;;;;;;;;17.40;99.90;;;;;;5089792;28;20001;-74
2022/06/26 01:48:37;;;;;;;;;;;17.30;99.90;;;;;;5089797;28;19924;-75
2022/06/26 01:51:06;;;;;;;;;;;17.30;99.90;;;;;;5074454;28;19931;-74
2022/06/26 01:53:34;;;;;;;;;;;17.30;99.90;;;;;;5089194;28;19969;-74
2022/06/26 01:56:01;;;;;;;;;;;17.20;99.90;;;;;;5059509;28;19929;-74
2022/06/26 01:58:35;;;;;;;;;;;17.10;99.90;;;;;;5053046;28;20368;-74
2022/06/26 02:01:05;;;;;;;;;;;17.10;99.90;;;;;;5056475;28;19931;-75
2022/06/26 02:03:32;;;;;;;;;;;17.10;99.90;;;;;;5072562;28;19935;-75
2022/06/26 02:05:59;;;;;;;;;;;17.00;99.90;;;;;;5072866;28;19950;-76
2022/06/26 02:08:26;;;;;;;;;;;16.90;99.90;;;;;;5072719;28;19936;-75
2022/06/26 02:13:41;;;;;;;;;;;16.90;99.90;;;;;;5071929;28;19924;-76
2022/06/26 02:16:11;;;;;;;;;;;17.00;99.90;;;;;;5071668;28;19928;-75
2022/06/26 02:18:38;;;;;;;;;;;17.00;99.90;;;;;;5070804;28;20024;-76
2022/06/26 02:21:07;;;;;;;;;;;17.10;99.90;;;;;;5071377;28;19939;-77
2022/06/26 02:23:34;;;;;;;;;;;17.00;99.90;;;;;;5088372;28;19928;-75
2022/06/26 02:26:01;;;;;;;;;;;17.00;99.90;;;;;;5088499;28;19942;-76
2022/06/26 02:28:29;;;;;;;;;;;17.00;99.90;;;;;;5072163;28;19954;-75
2022/06/26 02:31:00;;;;;;;;;;;16.90;99.90;;;;;;5087585;28;19940;-76
2022/06/26 02:33:28;;;;;;;;;;;16.90;99.90;;;;;;5088714;28;20532;-76
2022/06/26 02:35:55;;;;;;;;;;;17.00;99.90;;;;;;5071514;28;19951;-76
2022/06/26 02:38:23;;;;;;;;;;;17.00;99.90;;;;;;5071938;28;19928;-76
2022/06/26 02:40:50;;;;;;;;;;;17.00;99.90;;;;;;5071655;28;19924;-77
2022/06/26 02:43:18;;;;;;;;;;;17.00;99.90;;;;;;5071622;28;19943;-75
2022/06/26 02:45:45;;;;;;;;;;;17.00;99.90;;;;;;5070662;28;19924;-75
2022/06/26 02:48:14;;;;;;;;;;;16.90;99.90;;;;;;5051261;28;19932;-77
2022/06/26 02:50:41;;;;;;;;;;;16.90;99.90;;;;;;5051789;28;20277;-76
2022/06/26 02:53:09;;;;;;;;;;;16.80;99.90;;;;;;5051530;28;20030;-76
2022/06/26 02:55:37;;;;;;;;;;;16.80;99.90;;;;;;5073151;28;20426;-76
2022/06/26 02:58:04;;;;;;;;;;;16.80;99.90;;;;;;5078927;28;19973;-76
2022/06/26 03:00:35;;;;;;;;;;;16.70;99.90;;;;;;5092686;28;19927;-76
2022/06/26 03:03:02;;;;;;;;;;;16.70;99.90;;;;;;5092576;28;19924;-76
2022/06/26 03:05:31;;;;;;;;;;;16.60;99.90;;;;;;5081363;28;19931;-75
2022/06/26 03:07:59;;;;;;;;;;;16.60;99.90;;;;;;5082610;28;19928;-76
2022/06/26 03:10:27;;;;;;;;;;;16.60;99.90;;;;;;5090774;28;19928;-75
2022/06/26 03:12:53;;;;;;;;;;;16.50;99.90;;;;;;5087579;28;20329;-76
2022/06/26 03:15:20;;;;;;;;;;;16.50;99.90;;;;;;5070610;28;19924;-76
2022/06/26 03:17:47;;;;;;;;;;;16.50;99.90;;;;;;5081196;28;20017;-75
2022/06/26 03:20:16;;;;;;;;;;;16.50;99.90;;;;;;5079734;28;20010;-76
2022/06/26 03:22:45;;;;;;;;;;;16.50;99.90;;;;;;5070623;28;19937;-75
2022/06/26 03:25:12;;;;;;;;;;;16.50;99.90;;;;;;5070576;28;19955;-76
2022/06/26 03:27:39;;;;;;;;;;;16.50;99.90;;;;;;5069492;28;19932;-74
2022/06/26 03:30:09;;;;;;;;;;;16.50;99.90;;;;;;5083838;28;19928;-74
2022/06/26 03:32:36;;;;;;;;;;;16.50;99.90;;;;;;5088175;28;20372;-76
2022/06/26 03:35:06;;;;;;;;;;;16.60;99.90;;;;;;5055187;28;19971;-76
2022/06/26 03:37:34;;;;;;;;;;;16.60;99.90;;;;;;5072751;28;20393;-76
2022/06/26 03:40:03;;;;;;;;;;;16.70;99.90;;;;;;5075638;28;19928;-75
2022/06/26 03:42:30;;;;;;;;;;;16.70;99.90;;;;;;5082241;28;19969;-76
2022/06/26 03:44:57;;;;;;;;;;;16.70;99.90;;;;;;5070470;28;19924;-77
2022/06/26 03:47:24;;;;;;;;;;;16.70;99.90;;;;;;5063189;28;20541;-74
2022/06/26 03:49:54;;;;;;;;;;;16.70;99.90;;;;;;5053567;28;19928;-76
2022/06/26 03:52:22;;;;;;;;;;;16.70;99.90;;;;;;5051954;28;19938;-75
2022/06/26 03:54:50;;;;;;;;;;;16.80;99.90;;;;;;5085211;28;19924;-75
2022/06/26 03:57:21;;;;;;;;;;;16.80;99.90;;;;;;5090381;28;20410;-75
2022/06/26 03:59:50;;;;;;;;;;;16.90;99.90;;;;;;5091209;28;20418;-75
2022/06/26 04:02:27;;;;;;;;;;;16.90;99.90;;;;;;5091164;28;19935;-75
2022/06/26 04:04:54;;;;;;;;;;;17.00;99.90;;;;;;5090814;28;19928;-74
2022/06/26 04:07:21;;;;;;;;;;;17.00;99.90;;;;;;5090422;28;19924;-76
2022/06/26 04:09:56;;;;;;;;;;;17.10;99.90;;;;;;5090845;28;19935;-76
2022/06/26 04:12:24;;;;;;;;;;;17.10;99.90;;;;;;5090224;28;20414;-75
2022/06/26 04:14:52;;;;;;;;;;;17.10;99.90;;;;;;5090691;28;19928;-75
2022/06/26 04:17:19;;;;;;;;;;;17.10;99.90;;;;;;5091568;28;19932;-75
2022/06/26 04:19:55;;;;;;;;;;;17.20;99.90;;;;;;5093121;28;20341;-75
2022/06/26 04:22:22;;;;;;;;;;;17.20;99.90;;;;;;5095048;28;19951;-76
2022/06/26 04:24:50;;;;;;;;;;;17.30;99.90;;;;;;5094175;28;19978;-75
2022/06/26 04:27:19;;;;;;;;;;;17.30;99.90;;;;;;5094403;28;19924;-76
2022/06/26 04:29:48;;;;;;;;;;;17.30;99.90;;;;;;5094031;28;19998;-76
2022/06/26 04:32:15;;;;;;;;;;;17.30;99.90;;;;;;5094620;28;20010;-76
2022/06/26 04:34:44;;;;;;;;;;;17.40;99.90;;;;;;5094536;28;20028;-76
2022/06/26 04:37:11;;;;;;;;;;;17.50;99.90;;;;;;5094663;28;19932;-76
2022/06/26 04:39:38;;;;;;;;;;;17.40;99.90;;;;;;5094123;28;19924;-75
2022/06/26 04:42:05;;;;;;;;;;;17.50;99.90;;;;;;5094202;28;19943;-75
2022/06/26 04:44:37;;;;;;;;;;;17.40;99.90;;;;;;5094133;28;19928;-75
2022/06/26 04:47:06;;;;;;;;;;;17.40;99.90;;;;;;5094092;28;19958;-75
2022/06/26 04:49:44;;;;;;;;;;;17.90;99.90;;;;;;5094179;28;19966;-76
2022/06/26 04:52:12;;;;;;;;;;;17.40;99.90;;;;;;5093439;28;20306;-75
2022/06/26 04:54:42;;;;;;;;;;;17.40;99.90;;;;;;5094566;28;19924;-75
2022/06/26 04:57:09;;;;;;;;;;;17.50;99.90;;;;;;5094176;28;19947;-76
2022/06/26 04:59:36;;;;;;;;;;;17.40;99.90;;;;;;5095041;28;20086;-75
2022/06/26 05:02:07;;;;;;;;;;;17.40;99.90;;;;;;5094429;28;19928;-75
2022/06/26 05:05:13;;;;;;;;;;;17.40;99.90;;;;;;5029104;28;20396;-74
2022/06/26 05:08:12;;;;;;;;;;;17.40;99.90;;;;;;4996987;28;19964;-74
2022/06/26 05:10:39;;;;;;;;;;;17.30;99.90;;;;;;5074403;28;20422;-75
2022/06/26 05:13:07;;;;;;;;;;;17.20;99.90;;;;;;5093964;28;19928;-74
2022/06/26 05:15:34;;;;;;;;;;;17.20;99.90;;;;;;5113322;28;20287;-74
2022/06/26 05:18:02;;;;;;;;;;;17.20;99.90;;;;;;5093927;28;20299;-74
2022/06/26 05:20:29;;;;;;;;;;;17.20;99.90;;;;;;5094465;28;19932;-74
2022/06/26 05:22:57;;;;;;;;;;;17.20;99.90;;;;;;5093960;28;20391;-73
2022/06/26 05:25:24;;;;;;;;;;;17.30;99.90;;;;;;5094061;28;20305;-74
2022/06/26 05:27:54;;;;;;;;;;;17.50;99.90;;;;;;5094174;28;19928;-74
2022/06/26 05:30:22;;;;;;;;;;;17.80;99.90;;;;;;5092290;28;19934;-74
2022/06/26 05:32:49;;;;;;;;;;;18.60;99.90;;;;;;5073919;28;19989;-75
2022/06/26 05:35:20;;;;;;;;;;;18.60;99.90;;;;;;5053586;28;19931;-74
2022/06/26 05:37:47;;;;;;;;;;;18.80;99.90;;;;;;5053671;28;20383;-75
2022/06/26 05:40:14;;;;;;;;;;;18.90;99.90;;;;;;5053221;28;19928;-74
2022/06/26 05:42:42;;;;;;;;;;;18.90;99.90;;;;;;5069643;28;20350;-74
2022/06/26 05:45:10;;;;;;;;;;;19.00;99.90;;;;;;5053858;28;19932;-74
2022/06/26 05:47:38;;;;;;;;;;;19.00;99.90;;;;;;5052420;28;19936;-74
2022/06/26 05:50:05;;;;;;;;;;;18.90;99.90;;;;;;5071215;28;19925;-74
2022/06/26 05:52:36;;;;;;;;;;;18.90;99.90;;;;;;5079188;28;19925;-74
2022/06/26 05:55:22;;;;;;;;;;;19.00;99.90;;;;;;5071810;28;19950;-74
2022/06/26 05:58:07;;;;;;;;;;;19.00;99.90;;;;;;5076144;28;20558;-75
2022/06/26 06:00:59;;;;;;;;;;;19.10;99.90;;;;;;5073447;28;20419;-75
2022/06/26 06:03:27;;;;;;;;;;;19.20;99.90;;;;;;5089193;28;19924;-74
2022/06/26 06:05:57;;;;;;;;;;;19.40;99.90;;;;;;5067551;28;19924;-75
2022/06/26 06:08:26;;;;;;;;;;;19.50;99.90;;;;;;5054150;28;19951;-75
2022/06/26 06:10:53;;;;;;;;;;;19.60;99.90;;;;;;5057090;28;19924;-75
2022/06/26 06:13:20;;;;;;;;;;;19.50;99.90;;;;;;5084499;28;19928;-75
2022/06/26 06:15:48;;;;;;;;;;;19.60;99.90;;;;;;5089052;28;20011;-75
2022/06/26 06:18:15;;;;;;;;;;;19.50;99.90;;;;;;5076884;28;19970;-75
2022/06/26 06:20:45;;;;;;;;;;;19.40;99.90;;;;;;5092572;28;19923;-74
2022/06/26 06:23:12;;;;;;;;;;;19.40;99.90;;;;;;5086080;28;20019;-74
2022/06/26 06:25:41;;;;;;;;;;;19.30;99.90;;;;;;5081543;28;20026;-74
2022/06/26 06:28:09;;;;;;;;;;;19.30;99.90;;;;;;5089423;28;20011;-74
2022/06/26 06:30:40;;;;;;;;;;;20.20;99.90;;;;;;5080920;28;19931;-74
2022/06/26 06:33:07;;;;;;;;;;;20.90;99.90;;;;;;5064081;28;20023;-75
2022/06/26 06:35:41;;;;;;;;;;;21.80;99.90;;;;;;5074818;28;19927;-74
2022/06/26 06:38:09;;;;;;;;;;;22.80;99.90;;;;;;5088322;28;19928;-74
2022/06/26 06:40:38;;;;;;;;;;;23.40;99.90;;;;;;5077532;28;19930;-75
2022/06/26 06:43:10;;;;;;;;;;;24.10;99.90;;;;;;5073214;28;20247;-73
2022/06/26 06:46:03;;;;;;;;;;;24.50;99.90;;;;;;5065608;28;19928;-74
2022/06/26 06:48:30;;;;;;;;;;;25.70;99.90;;;;;;5071963;28;20331;-75
2022/06/26 06:51:29;;;;;;;;;;;26.70;99.90;;;;;;5069040;28;20000;-75
2022/06/26 06:53:55;;;;;;;;;;;27.60;99.90;;;;;;5072681;28;20418;-73
2022/06/26 06:56:26;;;;;;;;;;;28.70;99.90;;;;;;5090099;28;19928;-74
2022/06/26 06:58:55;;;;;;;;;;;29.90;99.90;;;;;;5095256;28;19923;-73
2022/06/26 07:01:22;;;;;;;;;;;30.50;99.90;;;;;;5072322;28;19925;-74
2022/06/26 07:03:49;;;;;;;;;;;30.90;99.90;;;;;;5079813;28;19924;-74
2022/06/26 07:06:16;;;;;;;;;;;30.60;99.90;;;;;;5074789;28;19932;-74
2022/06/26 07:08:42;;;;;;;;;;;30.60;99.90;;;;;;5088096;28;19970;-74
2022/06/26 07:11:12;;;;;;;;;;;30.90;99.90;;;;;;5071012;28;19931;-75
2022/06/26 07:13:40;;;;;;;;;;;31.40;99.90;;;;;;5093177;28;20353;-76
2022/06/26 07:16:08;;;;;;;;;;;31.80;99.90;;;;;;5067162;28;20013;-76
2022/06/26 07:18:35;;;;;;;;;;;32.40;99.90;;;;;;5070259;28;19973;-76
2022/06/26 07:21:03;;;;;;;;;;;32.00;99.90;;;;;;5089662;28;19975;-77
2022/06/26 07:23:30;;;;;;;;;;;31.90;99.90;;;;;;5092751;28;19924;-75
2022/06/26 07:26:05;;;;;;;;;;;31.10;99.90;;;;;;5091284;28;19927;-76
2022/06/26 07:28:38;;;;;;;;;;;29.90;99.90;;;;;;5072675;28;19924;-77
2022/06/26 07:31:06;;;;;;;;;;;28.50;99.90;;;;;;5070670;28;20408;-71
2022/06/26 07:36:22;;;;;;;;;;;27.20;99.90;;;;;;5053087;28;19928;-73
2022/06/26 07:38:49;;;;;;;;;;;26.70;99.90;;;;;;5053192;28;19925;-73
2022/06/26 07:41:17;;;;;;;;;;;26.10;99.90;;;;;;5052255;28;19936;-74
2022/06/26 07:43:44;;;;;;;;;;;23.90;99.90;;;;;;5080526;28;19928;-75
2022/06/26 07:46:12;;;;;;;;;;;25.40;99.90;;;;;;5076970;28;20389;-76
2022/06/26 07:48:41;;;;;;;;;;;25.00;99.90;;;;;;5078595;28;19923;-73
2022/06/26 07:51:09;;;;;;;;;;;24.70;99.90;;;;;;5075510;28;20002;-75
2022/06/26 07:53:36;;;;;;;;;;;25.10;99.90;;;;;;5069785;28;19924;-75
2022/06/26 07:56:05;;;;;;;;;;;25.20;99.90;;;;;;5094492;28;19924;-74
2022/06/26 07:58:32;;;;;;;;;;;26.40;99.90;;;;;;5079342;28;20392;-76
2022/06/26 08:00:59;;;;;;;;;;;27.40;99.90;;;;;;5089807;28;19963;-76
2022/06/26 08:03:26;;;;;;;;;;;27.30;99.90;;;;;;5064832;28;19928;-77
2022/06/26 08:05:55;;;;;;;;;;;27.20;99.90;;;;;;5072130;28;19992;-77
2022/06/26 08:08:22;;;;;;;;;;;27.40;99.90;;;;;;5089179;28;19931;-74
2022/06/26 08:10:50;;;;;;;;;;;27.80;99.90;;;;;;5088290;28;20307;-75
2022/06/26 08:13:18;;;;;;;;;;;27.80;99.90;;;;;;5057131;28;19924;-75
2022/06/26 08:15:45;;;;;;;;;;;27.80;99.90;;;;;;5062897;28;20387;-75
2022/06/26 08:18:12;;;;;;;;;;;27.80;99.90;;;;;;5069831;28;20335;-75
2022/06/26 08:20:40;;;;;;;;;;;27.40;99.90;;;;;;5090030;28;19924;-75
2022/06/26 08:23:09;;;;;;;;;;;27.80;99.90;;;;;;5086545;28;20335;-74
2022/06/26 08:25:36;;;;;;;;;;;28.20;99.90;;;;;;5072348;28;19954;-74
2022/06/26 08:28:03;;;;;;;;;;;28.80;99.90;;;;;;5054439;28;19955;-75
2022/06/26 08:30:30;;;;;;;;;;;29.50;99.90;;;;;;5087191;28;20323;-76
2022/06/26 08:32:58;;;;;;;;;;;29.50;99.90;;;;;;5065897;28;19931;-73
2022/06/26 08:35:27;;;;;;;;;;;29.20;99.90;;;;;;5075616;28;19931;-75
2022/06/26 08:37:55;;;;;;;;;;;28.50;99.90;;;;;;5088896;28;19928;-75
2022/06/26 08:40:24;;;;;;;;;;;28.10;99.90;;;;;;5069484;28;19928;-76
2022/06/26 08:42:53;;;;;;;;;;;28.30;99.90;;;;;;5086656;28;19978;-75
2022/06/26 08:45:20;;;;;;;;;;;28.80;99.90;;;;;;5085394;28;19959;-75
2022/06/26 08:47:49;;;;;;;;;;;29.50;99.90;;;;;;5087567;28;20373;-75
2022/06/26 08:50:18;;;;;;;;;;;30.80;99.90;;;;;;5075591;28;19924;-75
2022/06/26 08:52:46;;;;;;;;;;;31.00;99.90;;;;;;5091999;28;19935;-74
2022/06/26 08:55:14;;;;;;;;;;;31.40;99.90;;;;;;5088712;28;19986;-74
2022/06/26 08:57:43;;;;;;;;;;;31.30;99.90;;;;;;5050881;28;19932;-73
2022/06/26 09:00:11;;;;;;;;;;;30.20;99.90;;;;;;5049422;28;20368;-73
2022/06/26 09:02:38;;;;;;;;;;;29.90;99.90;;;;;;5050836;28;19932;-74
2022/06/26 09:05:06;;;;;;;;;;;29.30;99.90;;;;;;5052064;28;20048;-74
2022/06/26 09:07:43;;;;;;;;;;;28.80;99.90;;;;;;5062260;28;19928;-77
2022/06/26 09:10:11;;;;;;;;;;;28.80;99.90;;;;;;5084060;28;19928;-77
2022/06/26 09:12:38;;;;;;;;;;;28.20;99.90;;;;;;5063928;28;19928;-75
2022/06/26 09:15:07;;;;;;;;;;;28.40;99.90;;;;;;5064655;28;19927;-72
2022/06/26 09:17:36;;;;;;;;;;;28.30;99.90;;;;;;5088900;28;20340;-74
2022/06/26 09:20:14;;;;;;;;;;;28.50;99.90;;;;;;5095320;28;19924;-74
2022/06/26 09:22:51;;;;;;;;;;;28.50;99.90;;;;;;5096753;28;19977;-73
2022/06/26 09:25:18;;;;;;;;;;;28.80;99.90;;;;;;5075545;28;20045;-74
2022/06/26 09:27:45;;;;;;;;;;;28.90;99.90;;;;;;5073511;28;20391;-72
2022/06/26 09:30:15;;;;;;;;;;;29.10;99.90;;;;;;5088827;28;19928;-73
2022/06/26 09:32:42;;;;;;;;;;;29.20;99.90;;;;;;5073333;28;19932;-74
2022/06/26 09:35:09;;;;;;;;;;;29.20;99.90;;;;;;5070574;28;20435;-76
2022/06/26 09:37:38;;;;;;;;;;;29.40;99.90;;;;;;5070385;28;20019;-73
2022/06/26 09:40:05;;;;;;;;;;;29.90;99.90;;;;;;5087255;28;19955;-75
2022/06/26 09:42:33;;;;;;;;;;;30.40;99.90;;;;;;5093997;28;20056;-72
2022/06/26 09:45:01;;;;;;;;;;;30.70;99.90;;;;;;5082354;28;19928;-74
2022/06/26 09:47:30;;;;;;;;;;;30.70;99.90;;;;;;5074555;28;20553;-72
2022/06/26 09:49:57;;;;;;;;;;;30.30;99.90;;;;;;5082232;28;20407;-73
2022/06/26 09:52:26;;;;;;;;;;;30.30;99.90;;;;;;5076606;28;20117;-72
2022/06/26 09:54:53;;;;;;;;;;;30.10;99.90;;;;;;5075031;28;20407;-72
2022/06/26 09:57:20;;;;;;;;;;;30.00;99.90;;;;;;5069129;28;19932;-72
2022/06/26 09:59:51;;;;;;;;;;;30.00;99.90;;;;;;5087090;28;19947;-74
2022/06/26 10:07:53;;;;;;;;;;;29.80;99.90;;;;;;5075717;28;19931;-72
2022/06/26 10:10:21;;;;;;;;;;;29.70;99.90;;;;;;5072835;28;19928;-72
2022/06/26 10:12:50;;;;;;;;;;;29.70;99.90;;;;;;5077649;28;20072;-77
2022/06/26 10:15:18;;;;;;;;;;;29.70;99.90;;;;;;5069150;28;20004;-74
2022/06/26 10:18:00;;;;;;;;;;;29.50;99.90;;;;;;5091065;28;19931;-75
2022/06/26 10:20:32;;;;;;;;;;;29.50;99.90;;;;;;5055198;28;19932;-77
2022/06/26 10:22:59;;;;;;;;;;;29.40;99.90;;;;;;5066019;28;19924;-77
2022/06/26 10:25:28;;;;;;;;;;;29.10;99.90;;;;;;5074640;28;19931;-77
2022/06/26 10:27:55;;;;;;;;;;;28.90;99.90;;;;;;5085701;28;19942;-77
2022/06/26 10:30:23;;;;;;;;;;;28.90;99.90;;;;;;5094595;28;20411;-77
2022/06/26 10:33:06;;;;;;;;;;;27.10;99.90;;;;;;5069992;28;19924;-78
2022/06/26 10:35:43;;;;;;;;;;;28.70;99.90;;;;;;5083851;28;19928;-75
2022/06/26 10:38:20;;;;;;;;;;;28.50;99.90;;;;;;5067746;28;20431;-76
2022/06/26 10:43:42;;;;;;;;;;;28.50;99.90;;;;;;5088994;28;20602;-75
2022/06/26 10:46:14;;;;;;;;;;;28.40;99.90;;;;;;5090991;28;20697;-72
2022/06/26 10:49:13;;;;;;;;;;;28.30;99.90;;;;;;5092016;28;19935;-74
2022/06/26 10:52:06;;;;;;;;;;;28.20;99.90;;;;;;5073646;28;19935;-74
2022/06/26 10:54:39;;;;;;;;;;;28.00;99.90;;;;;;5073519;28;19938;-73
2022/06/26 10:57:15;;;;;;;;;;;28.10;99.90;;;;;;5052192;28;20391;-73
2022/06/26 10:59:51;;;;;;;;;;;27.90;99.90;;;;;;5051890;28;19932;-73
2022/06/26 11:02:46;;;;;;;;;;;27.90;99.90;;;;;;5052376;28;19929;-72
2022/06/26 11:05:34;;;;;;;;;;;27.80;99.90;;;;;;5056767;28;20288;-74
2022/06/26 11:08:11;;;;;;;;;;;27.70;99.90;;;;;;5070395;28;20308;-76
2022/06/26 11:10:46;;;;;;;;;;;27.70;99.90;;;;;;5074105;28;19930;-72
2022/06/26 11:13:13;;;;;;;;;;;27.80;99.90;;;;;;5061011;28;19928;-72
2022/06/26 11:15:40;;;;;;;;;;;27.90;99.90;;;;;;5074439;28;19943;-72
2022/06/26 11:18:11;;;;;;;;;;;28.00;99.90;;;;;;5071820;28;19931;-74
2022/06/26 11:20:49;;;;;;;;;;;27.60;99.90;;;;;;5071797;28;19928;-73
2022/06/26 11:23:18;;;;;;;;;;;28.30;99.90;;;;;;5088114;28;19924;-74
2022/06/26 11:25:47;;;;;;;;;;;28.30;99.90;;;;;;5088072;28;20014;-73
2022/06/26 11:28:14;;;;;;;;;;;28.30;99.90;;;;;;5089013;28;20445;-73
2022/06/26 11:30:41;;;;;;;;;;;28.30;99.90;;;;;;5070559;28;19929;-73
2022/06/26 11:33:09;;;;;;;;;;;28.20;99.90;;;;;;5070864;28;20002;-74
2022/06/26 11:35:36;;;;;;;;;;;28.10;99.90;;;;;;5087645;28;19924;-74
2022/06/26 11:38:10;;;;;;;;;;;27.80;99.90;;;;;;5087759;28;19989;-73
2022/06/26 11:40:38;;;;;;;;;;;27.40;99.90;;;;;;5087993;28;19974;-74
2022/06/26 11:43:06;;;;;;;;;;;27.00;99.90;;;;;;5086959;28;19931;-72
2022/06/26 11:45:34;;;;;;;;;;;26.80;99.90;;;;;;5087583;28;20395;-71
2022/06/26 11:48:02;;;;;;;;;;;26.50;99.90;;;;;;5070556;28;19928;-73
2022/06/26 11:50:33;;;;;;;;;;;26.20;99.90;;;;;;5070903;28;20072;-72
2022/06/26 11:53:02;;;;;;;;;;;26.00;99.90;;;;;;5087696;28;19928;-72
2022/06/26 11:55:29;;;;;;;;;;;25.80;99.90;;;;;;5088995;28;19934;-72
2022/06/26 11:57:56;;;;;;;;;;;25.70;99.90;;;;;;5087663;28;19982;-72
2022/06/26 12:00:25;;;;;;;;;;;25.60;99.90;;;;;;5088058;28;20001;-73
2022/06/26 12:02:53;;;;;;;;;;;25.50;99.90;;;;;;5087794;28;20283;-73
2022/06/26 12:05:22;;;;;;;;;;;25.30;99.90;;;;;;5088847;28;19960;-74
2022/06/26 12:07:51;;;;;;;;;;;25.20;99.90;;;;;;5088321;28;19927;-73
2022/06/26 12:10:30;;;;;;;;;;;25.00;99.90;;;;;;5071457;28;19924;-74
2022/06/26 12:12:57;;;;;;;;;;;24.70;99.90;;;;;;5072157;28;19940;-73
2022/06/26 12:15:26;;;;;;;;;;;24.70;99.90;;;;;;5088279;28;20645;-74
2022/06/26 12:17:56;;;;;;;;;;;24.70;99.90;;;;;;5089985;28;19987;-77
2022/06/26 12:20:23;;;;;;;;;;;24.60;99.90;;;;;;5074698;28;19928;-75
2022/06/26 12:22:51;;;;;;;;;;;24.70;99.90;;;;;;5073596;28;19928;-75
2022/06/26 12:25:26;;;;;;;;;;;24.90;99.90;;;;;;5083460;28;19954;-76
2022/06/26 12:27:53;;;;;;;;;;;25.10;99.90;;;;;;5073850;28;19963;-74
2022/06/26 12:30:21;;;;;;;;;;;25.20;99.90;;;;;;5079014;28;19928;-75
2022/06/26 12:32:50;;;;;;;;;;;25.30;99.90;;;;;;5082031;28;20023;-74
2022/06/26 12:35:18;;;;;;;;;;;25.40;99.90;;;;;;5084594;28;20029;-75
2022/06/26 12:37:45;;;;;;;;;;;25.50;99.90;;;;;;5074321;28;20104;-75
2022/06/26 12:40:14;;;;;;;;;;;25.50;99.90;;;;;;5072124;28;19934;-75
2022/06/26 12:42:41;;;;;;;;;;;25.50;99.90;;;;;;5089795;28;19942;-75
2022/06/26 12:45:08;;;;;;;;;;;25.50;99.90;;;;;;5090455;28;20378;-76
2022/06/26 12:47:35;;;;;;;;;;;25.50;99.90;;;;;;5081510;28;19939;-75
2022/06/26 12:50:04;;;;;;;;;;;25.50;99.90;;;;;;5068958;28;19924;-74
2022/06/26 12:52:32;;;;;;;;;;;25.50;99.90;;;;;;5071003;28;19936;-74
2022/06/26 12:54:59;;;;;;;;;;;25.20;99.90;;;;;;5087737;28;19971;-74
2022/06/26 12:57:27;;;;;;;;;;;25.20;99.90;;;;;;5078999;28;19923;-77
2022/06/26 12:59:55;;;;;;;;;;;24.90;99.90;;;;;;5093413;28;19928;-75
2022/06/26 13:02:22;;;;;;;;;;;24.80;99.90;;;;;;5076065;28;19931;-76
2022/06/26 13:04:51;;;;;;;;;;;24.80;99.90;;;;;;5083595;28;19933;-76
2022/06/26 13:07:21;;;;;;;;;;;24.80;99.90;;;;;;5075041;28;20029;-75
2022/06/26 13:09:48;;;;;;;;;;;25.10;99.90;;;;;;5111907;28;19949;-76
2022/06/26 13:12:18;;;;;;;;;;;25.20;99.90;;;;;;5089410;28;19932;-75
2022/06/26 13:14:45;;;;;;;;;;;25.50;99.90;;;;;;5069275;28;19943;-74
2022/06/26 13:17:12;;;;;;;;;;;25.80;99.90;;;;;;5087544;28;19928;-76
2022/06/26 13:19:39;;;;;;;;;;;26.20;99.90;;;;;;5087352;28;19947;-76
2022/06/26 13:22:07;;;;;;;;;;;26.20;99.90;;;;;;5073362;28;19940;-74
2022/06/26 13:24:36;;;;;;;;;;;26.40;99.90;;;;;;5088675;28;19932;-74
2022/06/26 13:27:03;;;;;;;;;;;26.50;99.90;;;;;;5098460;28;19942;-74
2022/06/26 13:29:29;;;;;;;;;;;26.90;99.90;;;;;;5090167;28;19931;-74
2022/06/26 13:31:57;;;;;;;;;;;26.90;99.90;;;;;;5072725;28;19928;-75
2022/06/26 13:34:24;;;;;;;;;;;27.20;99.90;;;;;;5081246;28;19932;-76
2022/06/26 13:36:51;;;;;;;;;;;27.50;99.90;;;;;;5089260;28;19924;-73
2022/06/26 13:39:18;;;;;;;;;;;27.80;99.90;;;;;;5092267;28;19982;-74
2022/06/26 13:41:47;;;;;;;;;;;28.10;99.90;;;;;;5088088;28;20384;-75
2022/06/26 13:44:15;;;;;;;;;;;28.20;99.90;;;;;;5081940;28;19924;-76
2022/06/26 13:46:42;;;;;;;;;;;28.10;99.90;;;;;;5071803;28;19931;-75
2022/06/26 13:49:09;;;;;;;;;;;28.40;99.90;;;;;;5080198;28;19928;-75
2022/06/26 13:51:36;;;;;;;;;;;28.60;99.90;;;;;;5077520;28;19934;-76
2022/06/26 13:54:03;;;;;;;;;;;28.50;99.90;;;;;;5082588;28;19927;-75
2022/06/26 13:56:30;;;;;;;;;;;28.30;99.90;;;;;;5082769;28;19925;-75
2022/06/26 13:58:58;;;;;;;;;;;28.10;99.90;;;;;;5089395;28;19924;-75
2022/06/26 14:01:26;;;;;;;;;;;28.00;99.90;;;;;;5070383;28;19986;-75
2022/06/26 14:03:56;;;;;;;;;;;27.90;99.90;;;;;;5088314;28;20015;-74
2022/06/26 14:06:23;;;;;;;;;;;27.70;99.90;;;;;;5075410;28;19928;-75
2022/06/26 14:08:50;;;;;;;;;;;27.50;99.90;;;;;;5065146;28;19935;-73
2022/06/26 14:11:17;;;;;;;;;;;27.40;99.90;;;;;;5086205;28;20000;-73
2022/06/26 14:13:44;;;;;;;;;;;27.40;99.90;;;;;;5081750;28;20392;-74
2022/06/26 14:16:12;;;;;;;;;;;27.50;99.90;;;;;;5070437;28;19981;-73
2022/06/26 14:18:39;;;;;;;;;;;27.50;99.90;;;;;;5069498;28;19928;-73
2022/06/26 14:21:07;;;;;;;;;;;27.50;99.90;;;;;;5077341;28;19931;-74
2022/06/26 14:26:18;;;;;;;;;;;27.30;99.90;;;;;;5078782;28;20551;-73
2022/06/26 14:28:46;;;;;;;;;;;27.10;99.90;;;;;;5086481;28;19963;-73
2022/06/26 14:31:14;;;;;;;;;;;26.90;99.90;;;;;;5088170;28;20395;-74
2022/06/26 14:33:42;;;;;;;;;;;26.60;99.90;;;;;;5075977;28;19943;-73
2022/06/26 14:36:10;;;;;;;;;;;26.30;99.90;;;;;;5087716;28;20003;-73
2022/06/26 14:38:38;;;;;;;;;;;26.00;99.90;;;;;;5102545;28;20011;-74
2022/06/26 14:41:08;;;;;;;;;;;25.70;99.90;;;;;;5119029;28;19934;-73
2022/06/26 14:43:36;;;;;;;;;;;25.40;99.90;;;;;;5103463;28;19974;-74